createdAt,value
2023-05-30T00:03:13.872Z,2.40
2023-05-30T00:08:16.559Z,2.00
2023-05-30T00:13:20.479Z,2.30
2023-05-30T00:18:23.628Z,2.00
2023-05-30T00:23:26.195Z,2.20
2023-05-30T00:28:29.140Z,2.40
2023-05-30T00:33:32.245Z,2.60
2023-05-30T00:38:34.880Z,2.60
2023-05-30T00:43:38.655Z,1.90
2023-05-30T00:48:41.788Z,2.50
2023-05-30T00:53:44.860Z,2.60
2023-05-30T00:58:47.501Z,2.60
2023-05-30T01:03:51.307Z,2.00
2023-05-30T01:08:53.936Z,2.50
2023-05-30T01:14:38.321Z,5.70
2023-05-30T01:20:10.428Z,3.90
2023-05-30T01:25:22.267Z,2.60
2023-05-30T01:30:27.226Z,2.60
2023-05-30T01:35:29.826Z,2.50
2023-05-30T01:40:33.487Z,2.50
2023-05-30T01:45:54.840Z,2.60
2023-05-30T01:51:00.192Z,2.40
2023-05-30T01:56:04.453Z,2.10
2023-05-30T02:01:09.018Z,2.60
2023-05-30T02:06:12.184Z,2.80
2023-05-30T02:11:14.735Z,3.30
2023-05-30T02:16:19.507Z,2.60
2023-05-30T02:21:22.212Z,2.50
2023-05-30T02:26:27.250Z,3.50
2023-05-30T02:31:29.954Z,3.30
2023-05-30T02:36:33.921Z,3.70
2023-05-30T02:41:38.737Z,5.20
2023-05-30T02:46:41.347Z,4.90
2023-05-30T02:51:44.470Z,5.70
2023-05-30T02:56:47.072Z,5.10
2023-05-30T03:01:50.021Z,5.10
2023-05-30T03:06:52.754Z,6.00
2023-05-30T03:11:55.531Z,5.20
2023-05-30T03:16:58.082Z,4.30
2023-05-30T03:22:01.316Z,4.20
2023-05-30T03:27:05.059Z,4.20
2023-05-30T03:32:08.647Z,4.10
2023-05-30T03:37:11.437Z,3.40
2023-05-30T03:42:14.089Z,3.40
2023-05-30T03:47:16.707Z,3.70
2023-05-30T03:52:19.493Z,3.80
2023-05-30T03:57:22.192Z,4.10
2023-05-30T04:02:24.833Z,3.60
2023-05-30T04:07:28.337Z,3.00
2023-05-30T04:12:31.168Z,3.90
2023-05-30T04:17:33.787Z,4.30
2023-05-30T04:22:36.694Z,3.50
2023-05-30T04:27:40.901Z,4.20
2023-05-30T04:32:53.781Z,4.60
2023-05-30T04:37:56.731Z,3.60
2023-05-30T04:43:00.231Z,3.80
2023-05-30T04:48:04.960Z,4.00
2023-05-30T04:53:07.644Z,4.10
2023-05-30T04:58:10.312Z,4.10
2023-05-30T05:03:13.240Z,4.10
2023-05-30T05:08:16.213Z,3.90
2023-05-30T05:13:18.776Z,3.80
2023-05-30T05:18:21.346Z,3.20
2023-05-30T05:23:24.452Z,3.80
2023-05-30T05:28:27.212Z,3.50
2023-05-30T05:33:29.857Z,5.80
2023-05-30T05:38:32.546Z,4.00
2023-05-30T05:43:37.147Z,2.40
2023-05-30T05:48:39.736Z,2.30
2023-05-30T05:53:42.298Z,2.20
2023-05-30T05:58:44.997Z,2.20
2023-05-30T06:03:47.785Z,2.90
2023-05-30T06:08:50.574Z,2.20
2023-05-30T06:13:53.115Z,2.10
2023-05-30T06:18:55.790Z,1.70
2023-05-30T06:23:58.449Z,1.90
2023-05-30T06:29:01.033Z,2.00
2023-05-30T06:34:03.895Z,2.30
2023-05-30T06:39:06.940Z,1.90
2023-05-30T06:44:10.059Z,1.60
2023-05-30T06:49:12.615Z,1.40
2023-05-30T06:54:15.192Z,2.00
2023-05-30T06:59:17.816Z,1.90
2023-05-30T07:04:21.158Z,1.90
2023-05-30T07:09:23.895Z,1.50
2023-05-30T07:14:26.547Z,1.50
2023-05-30T07:19:29.147Z,1.50
2023-05-30T07:24:31.692Z,1.40
2023-05-30T07:29:34.241Z,1.40
2023-05-30T07:34:37.189Z,1.40
2023-05-30T07:39:39.906Z,1.40
2023-05-30T07:44:42.558Z,1.60
2023-05-30T07:49:45.155Z,1.10
2023-05-30T07:54:47.812Z,1.20
2023-05-30T07:59:50.966Z,1.50
2023-05-30T08:04:54.685Z,1.30
2023-05-30T08:09:57.588Z,1.50
2023-05-30T08:15:00.431Z,1.30
2023-05-30T08:20:04.822Z,1.50
2023-05-30T08:25:08.631Z,1.30
2023-05-30T08:30:11.691Z,1.30
2023-05-30T08:35:15.122Z,1.40
2023-05-30T08:40:18.735Z,1.20
2023-05-30T08:45:21.437Z,1.50
2023-05-30T08:50:25.452Z,1.10
2023-05-30T08:55:34.134Z,1.10
2023-05-30T09:00:38.202Z,1.10
2023-05-30T09:05:41.434Z,1.30
2023-05-30T09:10:49.434Z,1.40
2023-05-30T09:15:53.101Z,1.20
2023-05-30T09:20:56.966Z,1.30
2023-05-30T09:26:01.373Z,1.20
2023-05-30T09:31:05.041Z,1.70
2023-05-30T09:36:13.417Z,1.20
2023-05-30T09:41:17.051Z,1.10
2023-05-30T09:46:21.341Z,1.30
2023-05-30T09:51:30.083Z,1.00
2023-05-30T09:56:40.959Z,1.20
2023-05-30T10:01:52.061Z,1.20
2023-05-30T10:06:55.898Z,1.10
2023-05-30T10:12:04.280Z,1.10
2023-05-30T10:17:09.089Z,1.20
2023-05-30T10:27:19.354Z,1.20
2023-05-30T10:32:27.393Z,1.20
2023-05-30T10:37:30.401Z,1.10
2023-05-30T10:42:44.965Z,1.30
2023-05-30T10:48:08.884Z,1.00
2023-05-30T10:53:16.886Z,1.10
2023-05-30T10:58:39.201Z,1.10
2023-05-30T11:03:46.583Z,1.20
2023-05-30T11:08:53.549Z,1.30
2023-05-30T11:13:58.031Z,1.10
2023-05-30T11:19:13.180Z,1.20
2023-05-30T11:24:18.121Z,1.20
2023-05-30T11:29:49.002Z,1.10
2023-05-30T11:35:04.538Z,1.10
2023-05-30T11:40:14.155Z,1.10
2023-05-30T11:45:18.500Z,1.20
2023-05-30T11:50:22.270Z,1.00
2023-05-30T11:55:25.016Z,1.20
2023-05-30T12:00:27.574Z,0.90
2023-05-30T12:05:30.402Z,1.10
2023-05-30T12:10:33.088Z,1.00
2023-05-30T12:15:38.857Z,1.00
2023-05-30T12:20:45.362Z,1.20
2023-05-30T12:25:53.842Z,1.10
2023-05-30T12:30:57.121Z,1.10
2023-05-30T12:35:59.761Z,1.10
2023-05-30T12:41:02.452Z,1.10
2023-05-30T12:46:13.233Z,1.00
2023-05-30T12:51:15.967Z,1.20
2023-05-30T12:56:18.569Z,1.30
2023-05-30T13:01:21.858Z,1.30
2023-05-30T13:06:24.530Z,1.20
2023-05-30T13:11:27.398Z,1.10
2023-05-30T13:16:30.189Z,1.10
2023-05-30T13:21:32.799Z,1.20
2023-05-30T13:26:35.768Z,1.20
2023-05-30T13:31:38.515Z,1.40
2023-05-30T13:36:41.133Z,1.20
2023-05-30T13:41:43.713Z,1.20
2023-05-30T13:46:46.895Z,1.30
2023-05-30T13:51:49.454Z,1.10
2023-05-30T13:56:52.047Z,1.00
2023-05-30T14:01:55.369Z,1.20
2023-05-30T14:06:59.100Z,1.10
2023-05-30T14:17:05.063Z,1.30
2023-05-30T14:22:11.318Z,1.30
2023-05-30T14:27:14.304Z,1.20
2023-05-30T14:32:16.957Z,1.60
2023-05-30T14:37:19.599Z,1.30
2023-05-30T14:42:22.502Z,1.60
2023-05-30T14:47:26.122Z,1.10
2023-05-30T14:52:28.747Z,1.30
2023-05-30T14:57:31.503Z,1.30
2023-05-30T15:02:34.190Z,1.20
2023-05-30T15:07:36.982Z,1.10
2023-05-30T15:12:40.178Z,1.30
2023-05-30T15:17:42.839Z,1.10
2023-05-30T15:27:50.746Z,1.20
2023-05-30T15:32:54.651Z,1.20
2023-05-30T15:37:57.647Z,1.00
2023-05-30T15:43:00.742Z,1.30
2023-05-30T15:48:03.658Z,1.20
2023-05-30T15:53:06.307Z,1.30
2023-05-30T15:58:08.967Z,1.00
2023-05-30T16:03:12.431Z,1.20
2023-05-30T16:08:14.998Z,1.20
2023-05-30T16:13:17.935Z,1.20
2023-05-30T16:18:20.670Z,1.00
2023-05-30T16:23:23.366Z,1.10
2023-05-30T16:28:25.928Z,1.20
2023-05-30T16:33:28.577Z,1.50
2023-05-30T16:38:35.446Z,2.00
2023-05-30T16:43:38.310Z,1.60
2023-05-30T16:48:40.885Z,1.30
2023-05-30T16:53:43.476Z,1.30
2023-05-30T16:58:46.371Z,1.40
2023-05-30T17:03:49.090Z,1.60
2023-05-30T17:08:52.032Z,1.10
2023-05-30T17:24:02.215Z,1.60
2023-05-30T17:29:05.388Z,1.00
2023-05-30T17:34:08.034Z,1.40
2023-05-30T17:39:12.121Z,2.60
2023-05-30T17:44:15.185Z,1.80
2023-05-30T17:49:17.925Z,1.50
2023-05-30T17:54:21.022Z,1.60
2023-05-30T17:59:23.829Z,1.50
2023-05-30T18:04:27.147Z,1.50
2023-05-30T18:09:30.217Z,1.50
2023-05-30T18:14:34.123Z,1.70
2023-05-30T18:19:37.152Z,1.20
2023-05-30T18:24:39.776Z,1.50
2023-05-30T18:29:44.355Z,1.70
2023-05-30T18:34:46.923Z,1.40
2023-05-30T18:39:50.144Z,1.60
2023-05-30T18:44:53.097Z,1.60
2023-05-30T18:49:56.027Z,1.80
2023-05-30T18:54:58.630Z,1.80
2023-05-30T19:00:01.930Z,2.30
2023-05-30T19:05:05.389Z,2.10
2023-05-30T19:10:08.967Z,2.30
2023-05-30T19:15:11.723Z,2.80
2023-05-30T19:20:14.776Z,2.40
2023-05-30T19:25:18.585Z,2.00
2023-05-30T19:30:22.211Z,2.30
2023-05-30T19:35:25.134Z,2.00
2023-05-30T19:40:28.362Z,2.40
2023-05-30T19:45:31.344Z,2.30
2023-05-30T19:50:34.921Z,2.20
2023-05-30T19:55:38.747Z,2.40
2023-05-30T20:00:41.970Z,2.10
2023-05-30T20:05:46.536Z,2.50
2023-05-30T20:10:49.372Z,3.60
2023-05-30T20:15:52.560Z,4.00
2023-05-30T20:20:55.656Z,5.90
2023-05-30T20:25:58.503Z,3.60
2023-05-30T20:31:01.412Z,2.20
2023-05-30T20:36:04.459Z,2.60
2023-05-30T20:41:07.176Z,2.60
2023-05-30T20:46:09.775Z,2.40
2023-05-30T20:51:12.693Z,2.40
2023-05-30T20:56:15.321Z,1.90
2023-05-30T21:01:17.957Z,2.40
2023-05-30T21:06:20.900Z,2.10
2023-05-30T21:11:23.542Z,2.50
2023-05-30T21:16:26.816Z,2.30
2023-05-30T21:21:29.497Z,2.40
2023-05-30T21:26:32.520Z,2.40
2023-05-30T21:31:35.179Z,2.20
2023-05-30T21:36:39.205Z,2.10
2023-05-30T21:41:43.453Z,2.10
2023-05-30T21:46:46.137Z,2.20
2023-05-30T21:51:48.797Z,2.10
2023-05-30T21:56:51.370Z,2.10
2023-05-30T22:01:53.926Z,2.20
2023-05-30T22:06:57.212Z,2.00
2023-05-30T22:11:59.804Z,1.60
2023-05-30T22:17:02.441Z,1.80
2023-05-30T22:22:06.506Z,2.20
2023-05-30T22:27:13.056Z,2.00
2023-05-30T22:32:15.637Z,2.00
2023-05-30T22:37:18.354Z,1.90
2023-05-30T22:42:21.012Z,2.00
2023-05-30T22:47:23.646Z,1.60
2023-05-30T22:52:26.277Z,1.40
2023-05-30T22:57:28.923Z,1.80
2023-05-30T23:02:31.585Z,1.80
2023-05-30T23:07:34.251Z,1.90
2023-05-30T23:12:36.961Z,2.00
2023-05-30T23:17:39.619Z,2.00
2023-05-30T23:22:42.222Z,2.00
2023-05-30T23:27:44.755Z,1.70
2023-05-30T23:32:47.349Z,1.90
2023-05-30T23:37:50.071Z,1.80
2023-05-30T23:42:52.675Z,2.40
2023-05-30T23:47:55.486Z,2.60
2023-05-30T23:52:58.079Z,2.70
2023-05-30T23:58:00.711Z,2.60
